createdAt,value
2023-04-24T00:00:18.653Z,1.73
2023-04-24T00:05:22.006Z,5.20
2023-04-24T00:10:24.961Z,10.40
2023-04-24T00:15:29.488Z,4.53
2023-04-24T00:20:33.425Z,7.15
2023-04-24T00:25:36.270Z,3.08
2023-04-24T00:30:40.414Z,3.17
2023-04-24T00:35:43.105Z,2.55
2023-04-24T00:40:48.699Z,7.63
2023-04-24T00:45:52.893Z,2.55
2023-04-24T00:50:55.800Z,5.45
2023-04-24T00:55:58.832Z,4.10
2023-04-24T01:01:03.580Z,1.67
2023-04-24T01:06:07.481Z,5.47
2023-04-24T01:11:10.208Z,1.65
2023-04-24T01:16:14.458Z,5.28
2023-04-24T01:21:18.366Z,2.53
2023-04-24T01:26:22.471Z,1.38
2023-04-24T01:31:25.438Z,2.20
2023-04-24T01:36:30.653Z,0.73
2023-04-24T01:41:35.659Z,3.25
2023-04-24T01:46:38.462Z,4.40
2023-04-24T01:51:41.255Z,4.70
2023-04-24T01:56:45.763Z,2.58
2023-04-24T02:01:48.553Z,0.80
2023-04-24T02:06:51.654Z,1.17
2023-04-24T02:11:55.941Z,0.85
2023-04-24T02:16:58.758Z,1.00
2023-04-24T02:22:01.925Z,0.70
2023-04-24T02:27:06.804Z,3.55
2023-04-24T02:32:12.450Z,1.50
2023-04-24T02:37:15.374Z,4.70
2023-04-24T02:42:20.987Z,5.85
2023-04-24T02:47:23.763Z,4.00
2023-04-24T02:52:26.632Z,3.60
2023-04-24T02:57:30.912Z,1.10
2023-04-24T03:02:33.799Z,2.65
2023-04-24T03:07:36.690Z,2.22
2023-04-24T03:12:40.854Z,7.60
2023-04-24T03:17:43.610Z,1.83
2023-04-24T03:22:46.486Z,2.20
2023-04-24T03:27:50.699Z,2.20
2023-04-24T03:33:05.236Z,5.93
2023-04-24T03:38:11.999Z,3.03
2023-04-24T03:43:31.367Z,3.55
2023-04-24T03:48:37.016Z,4.30
2023-04-24T03:53:40.026Z,11.27
2023-04-24T03:58:45.182Z,2.65
2023-04-24T04:03:48.364Z,3.50
2023-04-24T04:08:55.716Z,4.88
2023-04-24T04:13:59.896Z,7.00
2023-04-24T04:19:03.947Z,6.53
2023-04-24T04:24:08.266Z,3.67
2023-04-24T04:29:18.825Z,3.75
2023-04-24T04:34:24.625Z,5.70
2023-04-24T04:39:29.200Z,3.90
2023-04-24T04:44:43.817Z,14.98
2023-04-24T04:49:53.116Z,4.72
2023-04-24T04:55:01.216Z,9.43
2023-04-24T05:00:26.264Z,6.00
2023-04-24T05:05:29.922Z,3.13
2023-04-24T05:10:33.074Z,5.50
2023-04-24T05:15:37.935Z,3.03
2023-04-24T05:20:41.192Z,4.80
2023-04-24T05:25:44.204Z,9.40
2023-04-24T05:30:51.031Z,7.45
2023-04-24T05:35:58.068Z,5.17
2023-04-24T05:41:01.996Z,5.35
2023-04-24T05:46:06.332Z,8.10
2023-04-24T05:51:09.631Z,6.88
2023-04-24T05:56:12.730Z,4.65
2023-04-24T06:01:17.052Z,6.80
2023-04-24T06:06:23.722Z,8.75
2023-04-24T06:11:26.975Z,10.98
2023-04-24T06:16:33.551Z,7.55
2023-04-24T06:21:43.044Z,8.07
2023-04-24T06:26:47.881Z,7.38
2023-04-24T06:31:53.048Z,8.60
2023-04-24T06:36:56.945Z,10.30
2023-04-24T06:42:01.470Z,7.53
2023-04-24T06:47:05.771Z,12.05
2023-04-24T06:52:08.864Z,7.50
2023-04-24T06:57:13.631Z,9.05
2023-04-24T07:02:17.885Z,11.93
2023-04-24T07:07:21.513Z,6.07
2023-04-24T07:12:27.333Z,6.60
2023-04-24T07:17:31.597Z,7.20
2023-04-24T07:22:35.108Z,5.85
2023-04-24T07:27:38.004Z,10.98
2023-04-24T07:32:42.112Z,5.20
2023-04-24T07:37:47.117Z,7.13
2023-04-24T07:42:52.057Z,7.13
2023-04-24T07:47:57.314Z,7.03
2023-04-24T07:53:00.755Z,11.10
2023-04-24T07:58:04.128Z,3.83
2023-04-24T08:03:08.465Z,6.18
2023-04-24T08:08:11.902Z,7.53
2023-04-24T08:13:16.415Z,7.68
2023-04-24T08:18:21.606Z,3.85
2023-04-24T08:23:24.717Z,3.13
2023-04-24T08:28:27.748Z,3.72
2023-04-24T08:33:35.201Z,4.75
2023-04-24T08:38:40.213Z,3.28
2023-04-24T08:43:45.348Z,2.38
2023-04-24T08:48:54.116Z,4.30
2023-04-24T08:53:59.819Z,4.25
2023-04-24T08:59:03.854Z,3.10
2023-04-24T09:04:09.975Z,7.97
2023-04-24T09:09:13.550Z,2.58
2023-04-24T09:14:18.618Z,3.42
2023-04-24T09:19:23.476Z,6.97
2023-04-24T09:24:27.166Z,4.95
2023-04-24T09:29:31.194Z,4.55
2023-04-24T09:34:36.252Z,2.72
2023-04-24T09:39:41.240Z,3.58
2023-04-24T09:44:44.766Z,3.67
2023-04-24T09:49:49.173Z,4.18
2023-04-24T09:54:55.454Z,14.65
2023-04-24T10:00:01.818Z,3.20
2023-04-24T10:05:16.893Z,3.78
2023-04-24T10:10:20.994Z,1.65
2023-04-24T10:15:24.240Z,2.65
2023-04-24T10:20:32.091Z,4.80
2023-04-24T10:25:38.202Z,4.53
2023-04-24T10:30:44.848Z,1.67
2023-04-24T10:35:53.189Z,2.33
2023-04-24T10:41:08.517Z,1.20
2023-04-24T10:46:13.472Z,1.40
2023-04-24T10:51:20.135Z,10.48
2023-04-24T10:56:23.995Z,1.80
2023-04-24T11:01:28.381Z,1.77
2023-04-24T11:06:35.162Z,1.70
2023-04-24T11:11:41.082Z,3.42
2023-04-24T11:16:47.259Z,2.25
2023-04-24T11:22:01.328Z,1.43
2023-04-24T11:27:09.240Z,1.15
2023-04-24T11:32:29.205Z,1.33
2023-04-24T11:37:39.322Z,4.38
2023-04-24T11:42:45.379Z,3.75
2023-04-24T11:47:48.143Z,1.58
2023-04-24T11:52:54.267Z,3.28
2023-04-24T11:57:59.317Z,5.97
2023-04-24T12:03:10.669Z,2.13
2023-04-24T12:08:30.366Z,3.50
2023-04-24T12:13:33.656Z,2.05
2023-04-24T12:18:36.551Z,4.13
2023-04-24T12:23:42.532Z,1.95
2023-04-24T12:28:48.352Z,2.03
2023-04-24T12:33:54.291Z,3.25
2023-04-24T12:38:58.637Z,6.50
2023-04-24T12:44:01.948Z,5.45
2023-04-24T12:49:06.281Z,4.93
2023-04-24T12:54:14.412Z,13.70
2023-04-24T12:59:19.010Z,6.50
2023-04-24T13:04:22.412Z,10.95
2023-04-24T13:09:26.777Z,12.40
2023-04-24T13:14:30.327Z,14.52
2023-04-24T13:19:37.964Z,16.80
2023-04-24T13:24:44.421Z,9.00
2023-04-24T13:29:47.616Z,6.72
2023-04-24T13:34:52.645Z,8.32
2023-04-24T13:39:57.623Z,15.55
2023-04-24T13:45:06.111Z,8.77
2023-04-24T13:50:17.180Z,4.93
2023-04-24T13:55:21.409Z,10.15
2023-04-24T14:00:25.542Z,7.97
2023-04-24T14:05:28.409Z,8.00
2023-04-24T14:10:32.730Z,12.70
2023-04-24T14:15:38.976Z,9.55
2023-04-24T14:20:41.841Z,12.18
2023-04-24T14:25:46.857Z,11.18
2023-04-24T14:30:50.381Z,14.25
2023-04-24T14:35:54.398Z,9.38
2023-04-24T14:41:07.301Z,11.43
2023-04-24T14:46:10.944Z,10.35
2023-04-24T14:51:15.632Z,8.32
2023-04-24T14:56:22.747Z,6.83
2023-04-24T15:01:26.147Z,15.90
2023-04-24T15:06:32.435Z,8.60
2023-04-24T15:11:36.782Z,12.05
2023-04-24T15:16:42.207Z,10.75
2023-04-24T15:21:45.527Z,8.48
2023-04-24T15:26:50.760Z,25.73
2023-04-24T15:31:54.155Z,24.83
2023-04-24T15:36:57.447Z,11.48
2023-04-24T15:42:02.702Z,17.05
2023-04-24T15:47:06.449Z,7.55
2023-04-24T15:52:10.539Z,5.32
2023-04-24T15:57:14.704Z,8.23
2023-04-24T16:02:19.711Z,52.70
2023-04-24T16:07:25.993Z,26.30
2023-04-24T16:12:30.649Z,8.85
2023-04-24T16:17:35.605Z,11.90
2023-04-24T16:22:39.895Z,7.65
2023-04-24T16:27:45.509Z,7.95
2023-04-24T16:32:49.926Z,7.75
2023-04-24T16:37:53.256Z,19.35
2023-04-24T16:42:57.438Z,5.68
2023-04-24T16:48:00.583Z,4.57
2023-04-24T16:53:04.305Z,4.35
2023-04-24T16:58:09.519Z,4.93
2023-04-24T17:03:14.333Z,9.32
2023-04-24T17:08:19.451Z,5.23
2023-04-24T17:13:23.618Z,18.27
2023-04-24T17:18:28.304Z,9.68
2023-04-24T17:23:32.534Z,8.82
2023-04-24T17:28:37.187Z,15.38
2023-04-24T17:33:39.967Z,8.63
2023-04-24T17:38:43.332Z,10.85
2023-04-24T17:43:47.637Z,13.45
2023-04-24T17:48:51.205Z,9.60
2023-04-24T17:53:55.692Z,9.68
2023-04-24T17:59:01.611Z,11.68
2023-04-24T18:04:04.609Z,13.77
2023-04-24T18:09:09.234Z,11.82
2023-04-24T18:14:13.644Z,11.70
2023-04-24T18:19:18.798Z,9.20
2023-04-24T18:24:22.411Z,14.45
2023-04-24T18:29:26.499Z,14.45
2023-04-24T18:34:31.673Z,18.05
2023-04-24T18:39:36.664Z,10.23
2023-04-24T18:44:42.774Z,13.02
2023-04-24T18:49:46.220Z,14.85
2023-04-24T18:54:49.132Z,16.75
2023-04-24T18:59:53.866Z,20.67
2023-04-24T19:04:57.294Z,17.10
2023-04-24T19:10:01.886Z,13.88
2023-04-24T19:15:11.685Z,20.65
2023-04-24T19:20:14.553Z,17.02
2023-04-24T19:25:17.647Z,14.30
2023-04-24T19:30:21.843Z,12.60
2023-04-24T19:35:24.696Z,15.63
2023-04-24T19:40:27.668Z,12.10
2023-04-24T19:45:32.704Z,13.95
2023-04-24T19:50:36.002Z,17.60
2023-04-24T19:55:38.876Z,20.92
2023-04-24T20:00:44.911Z,17.05
2023-04-24T20:05:47.922Z,28.00
2023-04-24T20:10:50.886Z,19.25
2023-04-24T20:15:56.562Z,17.83
2023-04-24T20:21:00.132Z,18.52
2023-04-24T20:26:04.877Z,19.48
2023-04-24T20:31:09.750Z,17.23
2023-04-24T20:36:12.580Z,16.38
2023-04-24T20:41:15.991Z,19.80
2023-04-24T20:46:20.510Z,21.10
2023-04-24T20:51:23.476Z,12.30
2023-04-24T20:56:26.669Z,13.95
2023-04-24T21:01:31.194Z,20.65
2023-04-24T21:06:34.265Z,18.98
2023-04-24T21:11:37.393Z,23.60
2023-04-24T21:16:42.680Z,18.23
2023-04-24T21:21:46.355Z,17.38
2023-04-24T21:26:50.662Z,13.15
2023-04-24T21:31:55.649Z,14.82
2023-04-24T21:36:58.455Z,16.13
2023-04-24T21:42:01.202Z,14.20
2023-04-24T21:47:05.702Z,15.23
2023-04-24T21:52:08.782Z,17.48
2023-04-24T21:57:11.631Z,11.85
2023-04-24T22:02:16.048Z,15.77
2023-04-24T22:07:18.800Z,18.02
2023-04-24T22:12:21.615Z,19.48
2023-04-24T22:17:26.435Z,21.63
2023-04-24T22:22:29.535Z,22.02
2023-04-24T22:27:35.615Z,25.90
2023-04-24T22:32:40.045Z,31.13
2023-04-24T22:37:42.906Z,23.35
2023-04-24T22:42:45.691Z,20.83
2023-04-24T22:47:49.931Z,20.88
2023-04-24T22:52:54.187Z,21.05
2023-04-24T22:57:57.633Z,24.55
2023-04-24T23:03:01.942Z,34.58
2023-04-24T23:08:04.778Z,21.50
2023-04-24T23:13:07.572Z,17.25
2023-04-24T23:18:12.596Z,18.95
2023-04-24T23:23:16.058Z,16.13
2023-04-24T23:28:18.911Z,21.25
2023-04-24T23:33:23.302Z,19.30
2023-04-24T23:38:26.592Z,18.85
2023-04-24T23:43:31.416Z,24.60
2023-04-24T23:48:37.009Z,20.77
2023-04-24T23:53:39.883Z,28.05
2023-04-24T23:58:42.626Z,19.30
